createdAt,value
2023-01-26T00:01:15.712Z,33.35
2023-01-26T00:03:42.886Z,31.58
2023-01-26T00:06:12.484Z,31.02
2023-01-26T00:08:45.320Z,31.88
2023-01-26T00:11:15.166Z,32.97
2023-01-26T00:13:42.448Z,35.83
2023-01-26T00:16:12.525Z,30.52
2023-01-26T00:18:40.599Z,28.75
2023-01-26T00:21:08.879Z,34.25
2023-01-26T00:23:36.012Z,35.97
2023-01-26T00:26:02.871Z,32.63
2023-01-26T00:28:29.789Z,29.73
2023-01-26T00:31:29.150Z,36.28
2023-01-26T00:33:56.727Z,32.78
2023-01-26T00:36:24.321Z,30.70
2023-01-26T00:38:51.197Z,32.85
2023-01-26T00:41:36.716Z,39.35
2023-01-26T00:44:03.747Z,44.47
2023-01-26T00:46:30.693Z,32.45
2023-01-26T00:48:57.536Z,34.80
2023-01-26T00:51:24.339Z,35.10
2023-01-26T00:53:51.366Z,32.92
2023-01-26T00:56:19.114Z,34.65
2023-01-26T00:58:46.734Z,36.17
2023-01-26T01:01:13.695Z,34.58
2023-01-26T01:03:42.776Z,36.53
2023-01-26T01:06:09.724Z,36.20
2023-01-26T01:08:36.588Z,35.72
2023-01-26T01:11:05.445Z,37.72
2023-01-26T01:13:32.482Z,32.97
2023-01-26T01:15:59.352Z,35.63
2023-01-26T01:18:26.265Z,30.88
2023-01-26T01:20:53.192Z,35.25
2023-01-26T01:23:20.154Z,35.55
2023-01-26T01:25:47.047Z,35.90
2023-01-26T01:28:13.833Z,38.38
2023-01-26T01:30:41.429Z,33.05
2023-01-26T01:33:08.313Z,36.03
2023-01-26T01:35:35.867Z,34.47
2023-01-26T01:38:02.813Z,32.03
2023-01-26T01:40:29.872Z,32.92
2023-01-26T01:42:56.938Z,33.92
2023-01-26T01:45:26.938Z,32.58
2023-01-26T01:48:02.023Z,30.67
2023-01-26T01:50:39.315Z,34.65
2023-01-26T01:53:10.954Z,29.05
2023-01-26T01:55:37.917Z,33.05
2023-01-26T01:58:07.085Z,36.65
2023-01-26T02:00:33.997Z,32.72
2023-01-26T02:03:16.728Z,31.27
2023-01-26T02:06:15.936Z,30.25
2023-01-26T02:08:49.626Z,27.67
2023-01-26T02:11:27.122Z,31.75
2023-01-26T02:13:54.730Z,34.08
2023-01-26T02:16:21.644Z,33.42
2023-01-26T02:18:48.690Z,33.97
2023-01-26T02:21:20.447Z,31.88
2023-01-26T02:23:51.107Z,32.58
2023-01-26T02:26:23.725Z,32.05
2023-01-26T02:28:52.333Z,30.77
2023-01-26T02:31:20.033Z,30.17
2023-01-26T02:33:48.073Z,29.50
2023-01-26T02:36:30.061Z,28.80
2023-01-26T02:39:20.362Z,32.10
2023-01-26T02:42:08.206Z,30.67
2023-01-26T02:44:35.308Z,28.85
2023-01-26T02:47:12.401Z,30.88
2023-01-26T02:49:51.127Z,32.45
2023-01-26T02:52:23.291Z,33.63
2023-01-26T02:55:16.855Z,32.78
2023-01-26T02:57:45.148Z,28.00
2023-01-26T03:00:18.248Z,34.35
2023-01-26T03:02:46.749Z,32.60
2023-01-26T03:05:14.099Z,29.23
2023-01-26T03:07:41.424Z,29.42
2023-01-26T03:10:09.606Z,32.05
2023-01-26T03:12:37.140Z,30.15
2023-01-26T03:15:23.951Z,32.78
2023-01-26T03:17:51.842Z,30.38
2023-01-26T03:20:36.974Z,30.58
2023-01-26T03:23:22.256Z,34.70
2023-01-26T03:26:11.527Z,30.13
2023-01-26T03:28:38.414Z,31.95
2023-01-26T03:31:07.533Z,31.73
2023-01-26T03:33:34.428Z,32.55
2023-01-26T03:36:01.633Z,31.02
2023-01-26T03:38:29.633Z,30.20
2023-01-26T03:41:17.997Z,28.52
2023-01-26T03:44:03.414Z,30.10
2023-01-26T03:46:49.066Z,30.30
2023-01-26T03:49:35.125Z,30.83
2023-01-26T03:52:20.331Z,35.75
2023-01-26T03:55:07.003Z,32.30
2023-01-26T03:57:33.795Z,31.10
2023-01-26T04:00:00.794Z,31.67
2023-01-26T04:02:46.729Z,30.13
2023-01-26T04:05:32.330Z,33.33
2023-01-26T04:08:23.627Z,30.05
2023-01-26T04:11:01.423Z,38.95
2023-01-26T04:13:46.794Z,36.75
2023-01-26T04:16:41.644Z,39.53
2023-01-26T04:19:27.549Z,34.97
2023-01-26T04:21:54.609Z,30.67
2023-01-26T04:24:22.714Z,31.63
2023-01-26T04:26:54.173Z,30.60
2023-01-26T04:29:28.304Z,33.45
2023-01-26T04:31:55.409Z,33.88
2023-01-26T04:34:23.243Z,35.50
2023-01-26T04:36:50.503Z,36.45
2023-01-26T04:39:18.920Z,37.47
2023-01-26T04:41:48.825Z,33.38
2023-01-26T04:44:17.036Z,33.65
2023-01-26T04:46:44.047Z,35.58
2023-01-26T04:49:13.253Z,33.08
2023-01-26T04:51:40.635Z,31.83
2023-01-26T04:54:08.227Z,31.67
2023-01-26T04:56:38.536Z,51.20
2023-01-26T04:59:07.988Z,46.33
2023-01-26T05:01:37.421Z,51.30
2023-01-26T05:04:07.975Z,40.50
2023-01-26T05:06:38.416Z,29.90
2023-01-26T05:09:06.219Z,38.30
2023-01-26T05:11:34.962Z,35.58
2023-01-26T05:14:20.491Z,46.97
2023-01-26T05:16:57.793Z,38.00
2023-01-26T05:19:39.524Z,65.22
2023-01-26T05:22:15.680Z,65.43
2023-01-26T05:25:02.667Z,43.75
2023-01-26T05:27:47.201Z,79.32
2023-01-26T05:30:14.951Z,64.38
2023-01-26T05:32:43.057Z,87.88
2023-01-26T05:35:11.047Z,42.63
2023-01-26T05:37:38.589Z,44.08
2023-01-26T05:40:06.040Z,34.45
2023-01-26T05:42:32.992Z,33.38
2023-01-26T05:45:35.669Z,37.05
2023-01-26T05:48:02.746Z,46.88
2023-01-26T05:50:31.329Z,44.35
2023-01-26T05:53:27.276Z,39.63
2023-01-26T05:55:54.495Z,40.10
2023-01-26T05:58:23.867Z,42.03
2023-01-26T06:00:51.497Z,41.60
2023-01-26T06:03:24.521Z,53.83
2023-01-26T06:05:55.350Z,47.38
2023-01-26T06:08:45.145Z,47.40
2023-01-26T06:11:43.525Z,44.75
2023-01-26T06:14:25.683Z,56.75
2023-01-26T06:16:54.580Z,49.17
2023-01-26T06:19:21.637Z,40.95
2023-01-26T06:21:53.544Z,63.80
2023-01-26T06:24:20.764Z,52.95
2023-01-26T06:26:49.478Z,58.55
2023-01-26T06:29:18.009Z,45.07
2023-01-26T06:31:45.085Z,58.50
2023-01-26T06:34:12.591Z,49.25
2023-01-26T06:36:41.829Z,49.60
2023-01-26T06:39:13.159Z,42.88
2023-01-26T06:41:40.388Z,42.03
2023-01-26T06:44:08.782Z,43.55
2023-01-26T06:46:36.206Z,44.95
2023-01-26T06:49:04.526Z,47.58
2023-01-26T06:51:43.265Z,45.83
2023-01-26T06:54:11.495Z,42.75
2023-01-26T06:56:53.553Z,40.50
2023-01-26T06:59:38.298Z,50.67
2023-01-26T07:02:22.635Z,43.05
2023-01-26T07:04:50.461Z,41.28
2023-01-26T07:07:17.617Z,42.58
2023-01-26T07:09:44.867Z,41.05
2023-01-26T07:12:11.707Z,41.63
2023-01-26T07:14:38.625Z,40.58
2023-01-26T07:17:05.521Z,39.13
2023-01-26T07:19:33.887Z,39.88
2023-01-26T07:22:01.526Z,37.35
2023-01-26T07:24:28.965Z,39.58
2023-01-26T07:26:56.562Z,41.53
2023-01-26T07:29:23.363Z,38.72
2023-01-26T07:31:50.586Z,46.13
2023-01-26T07:34:17.693Z,34.65
2023-01-26T07:36:45.626Z,43.45
2023-01-26T07:39:12.563Z,44.58
2023-01-26T07:41:39.451Z,46.38
2023-01-26T07:44:25.615Z,48.65
2023-01-26T07:46:53.827Z,49.60
2023-01-26T07:49:20.861Z,50.92
2023-01-26T07:51:47.929Z,52.38
2023-01-26T07:54:15.039Z,45.22
2023-01-26T07:56:41.862Z,50.25
2023-01-26T07:59:11.391Z,48.45
2023-01-26T08:01:39.524Z,44.63
2023-01-26T08:04:07.457Z,51.78
2023-01-26T08:06:34.298Z,55.20
2023-01-26T08:09:01.433Z,50.97
2023-01-26T08:11:28.261Z,50.22
2023-01-26T08:13:56.118Z,39.88
2023-01-26T08:16:23.029Z,34.80
2023-01-26T08:18:50.228Z,32.90
2023-01-26T08:21:18.644Z,38.53
2023-01-26T08:23:52.595Z,36.97
2023-01-26T08:26:20.232Z,37.28
2023-01-26T08:28:47.701Z,32.10
2023-01-26T08:31:20.673Z,34.72
2023-01-26T08:33:50.988Z,31.33
2023-01-26T08:36:21.730Z,33.75
2023-01-26T08:41:16.210Z,29.83
2023-01-26T08:43:43.475Z,31.35
2023-01-26T08:46:10.921Z,25.17
2023-01-26T08:48:38.659Z,31.20
2023-01-26T08:51:08.084Z,30.25
2023-01-26T08:53:36.362Z,33.25
2023-01-26T08:56:05.422Z,30.85
2023-01-26T08:58:33.832Z,33.70
2023-01-26T09:01:04.970Z,42.60
2023-01-26T09:06:02.206Z,33.10
2023-01-26T09:08:29.246Z,36.10
2023-01-26T09:10:56.384Z,47.85
2023-01-26T09:13:23.633Z,65.75
2023-01-26T09:15:50.516Z,47.90
2023-01-26T09:18:18.098Z,59.75
2023-01-26T09:20:45.304Z,41.50
2023-01-26T09:23:12.771Z,42.72
2023-01-26T09:25:40.115Z,43.47
2023-01-26T09:28:07.258Z,38.30
2023-01-26T09:30:34.123Z,33.65
2023-01-26T09:33:02.762Z,33.28
2023-01-26T09:35:30.817Z,28.30
2023-01-26T09:37:57.710Z,33.13
2023-01-26T09:40:55.283Z,31.20
2023-01-26T09:43:35.791Z,36.45
2023-01-26T09:46:22.201Z,30.47
2023-01-26T09:49:11.752Z,114.25
2023-01-26T09:52:03.589Z,70.10
2023-01-26T09:54:47.101Z,45.45
2023-01-26T09:57:17.539Z,34.40
2023-01-26T09:59:53.445Z,78.65
2023-01-26T10:02:41.843Z,43.05
2023-01-26T10:05:19.829Z,44.50
2023-01-26T10:07:46.951Z,40.33
2023-01-26T10:10:41.880Z,37.47
2023-01-26T10:13:13.027Z,37.50
2023-01-26T10:18:39.454Z,27.65
2023-01-26T10:21:07.674Z,37.85
2023-01-26T10:23:36.163Z,32.10
2023-01-26T10:26:24.764Z,25.05
2023-01-26T10:28:53.005Z,30.70
2023-01-26T10:31:25.011Z,37.42
2023-01-26T10:33:59.629Z,33.00
2023-01-26T10:36:29.865Z,37.08
2023-01-26T10:39:04.783Z,33.50
2023-01-26T10:41:31.831Z,35.75
2023-01-26T10:44:01.249Z,34.20
2023-01-26T10:46:41.258Z,35.30
2023-01-26T10:49:08.298Z,37.05
2023-01-26T10:51:37.764Z,44.40
2023-01-26T10:54:25.711Z,34.30
2023-01-26T10:57:02.550Z,69.93
2023-01-26T10:59:46.278Z,39.78
2023-01-26T11:02:18.775Z,35.45
2023-01-26T11:05:18.452Z,34.67
2023-01-26T11:07:48.187Z,43.63
2023-01-26T11:10:21.059Z,38.45
2023-01-26T11:12:48.933Z,37.70
2023-01-26T11:15:21.931Z,37.35
2023-01-26T11:18:00.172Z,45.75
2023-01-26T11:20:51.413Z,32.67
2023-01-26T11:23:32.964Z,35.08
2023-01-26T11:26:37.034Z,38.30
2023-01-26T11:29:22.754Z,34.03
2023-01-26T11:32:04.694Z,39.15
2023-01-26T11:34:48.172Z,33.35
2023-01-26T11:37:44.567Z,35.35
2023-01-26T11:41:03.885Z,34.30
2023-01-26T11:43:54.584Z,36.42
2023-01-26T11:46:42.741Z,35.78
2023-01-26T11:49:17.141Z,34.20
2023-01-26T11:51:59.998Z,53.00
2023-01-26T11:54:46.024Z,53.00
2023-01-26T11:57:54.150Z,33.45
2023-01-26T12:00:44.177Z,39.83
2023-01-26T12:03:46.047Z,36.10
2023-01-26T12:06:27.362Z,24.33
2023-01-26T12:11:42.654Z,28.95
2023-01-26T12:14:21.673Z,30.33
2023-01-26T12:17:39.464Z,37.58
2023-01-26T12:20:28.821Z,35.65
2023-01-26T12:23:02.509Z,35.22
2023-01-26T12:25:38.387Z,31.88
2023-01-26T12:28:26.912Z,40.38
2023-01-26T12:31:14.347Z,47.72
2023-01-26T12:33:42.163Z,53.83
2023-01-26T12:36:27.331Z,53.70
2023-01-26T12:39:08.210Z,47.00
2023-01-26T12:42:23.276Z,52.30
2023-01-26T12:45:02.080Z,46.47
2023-01-26T12:47:44.237Z,48.28
2023-01-26T12:50:40.263Z,49.78
2023-01-26T12:53:32.376Z,61.25
2023-01-26T12:56:19.136Z,46.05
2023-01-26T12:58:50.305Z,42.90
2023-01-26T13:01:20.778Z,47.17
2023-01-26T13:03:55.795Z,50.40
2023-01-26T13:06:25.812Z,59.60
2023-01-26T13:09:04.866Z,58.10
2023-01-26T13:11:47.693Z,40.63
2023-01-26T13:14:59.355Z,118.72
2023-01-26T13:17:27.448Z,70.43
2023-01-26T13:20:00.326Z,56.80
2023-01-26T13:22:27.118Z,55.35
2023-01-26T13:24:59.128Z,56.65
2023-01-26T13:27:28.332Z,50.20
2023-01-26T13:29:56.250Z,42.70
2023-01-26T13:32:23.337Z,32.78
2023-01-26T13:34:58.396Z,191.27
2023-01-26T13:37:34.700Z,48.40
2023-01-26T13:40:37.931Z,70.20
2023-01-26T13:43:28.254Z,95.80
2023-01-26T13:46:29.583Z,106.53
2023-01-26T13:48:57.464Z,43.67
2023-01-26T13:51:27.753Z,35.92
2023-01-26T13:54:04.737Z,57.50
2023-01-26T13:56:40.248Z,61.00
2023-01-26T13:59:14.885Z,49.60
2023-01-26T14:01:47.623Z,42.72
2023-01-26T14:04:21.282Z,46.58
2023-01-26T14:07:10.033Z,39.92
2023-01-26T14:10:01.508Z,65.05
2023-01-26T14:12:33.861Z,47.13
2023-01-26T14:15:04.144Z,73.18
2023-01-26T14:17:47.253Z,71.18
2023-01-26T14:20:35.914Z,74.82
2023-01-26T14:23:13.719Z,78.25
2023-01-26T14:25:56.968Z,59.85
2023-01-26T14:28:31.211Z,53.08
2023-01-26T14:31:03.277Z,64.65
2023-01-26T14:33:31.076Z,62.35
2023-01-26T14:36:05.441Z,39.67
2023-01-26T14:38:44.654Z,41.58
2023-01-26T14:41:31.977Z,64.53
2023-01-26T14:44:05.990Z,45.15
2023-01-26T14:46:55.847Z,59.38
2023-01-26T14:49:22.603Z,52.95
2023-01-26T14:51:57.727Z,61.20
2023-01-26T14:54:28.424Z,48.15
2023-01-26T14:56:56.255Z,42.28
2023-01-26T14:59:31.226Z,58.47
2023-01-26T15:02:10.217Z,61.72
2023-01-26T15:04:40.576Z,67.70
2023-01-26T15:07:32.276Z,47.67
2023-01-26T15:09:59.247Z,59.78
2023-01-26T15:12:26.819Z,70.30
2023-01-26T15:14:59.432Z,57.42
2023-01-26T15:17:41.202Z,65.18
2023-01-26T15:20:31.286Z,56.90
2023-01-26T15:22:58.227Z,54.65
2023-01-26T15:25:27.691Z,56.45
2023-01-26T15:28:01.279Z,58.28
2023-01-26T15:30:35.467Z,57.47
2023-01-26T15:33:02.668Z,55.60
2023-01-26T15:35:32.540Z,56.13
2023-01-26T15:38:04.980Z,58.63
2023-01-26T15:40:33.064Z,60.92
2023-01-26T15:43:17.935Z,64.07
2023-01-26T15:45:55.629Z,59.58
2023-01-26T15:48:31.641Z,48.67
2023-01-26T15:50:59.175Z,47.30
2023-01-26T15:53:26.449Z,51.50
2023-01-26T15:55:55.440Z,50.58
2023-01-26T15:58:23.701Z,56.20
2023-01-26T16:00:53.912Z,56.78
2023-01-26T16:03:22.455Z,64.55
2023-01-26T16:05:51.247Z,55.58
2023-01-26T16:08:20.944Z,55.13
2023-01-26T16:10:47.992Z,51.72
2023-01-26T16:13:19.086Z,56.65
2023-01-26T16:16:13.762Z,66.38
2023-01-26T16:18:46.537Z,60.50
2023-01-26T16:21:30.268Z,57.65
2023-01-26T16:23:57.685Z,47.85
2023-01-26T16:26:26.916Z,51.13
2023-01-26T16:28:54.497Z,53.53
2023-01-26T16:31:29.999Z,43.50
2023-01-26T16:33:57.409Z,139.85
2023-01-26T16:36:24.630Z,112.47
2023-01-26T16:38:51.529Z,114.85
2023-01-26T16:41:32.833Z,112.47
2023-01-26T16:44:02.682Z,103.05
2023-01-26T16:46:30.811Z,41.67
2023-01-26T16:48:58.031Z,41.35
2023-01-26T16:51:32.244Z,57.33
2023-01-26T16:53:59.541Z,40.72
2023-01-26T16:56:26.500Z,33.78
2023-01-26T16:58:53.939Z,78.70
2023-01-26T17:01:32.317Z,54.75
2023-01-26T17:03:59.425Z,41.95
2023-01-26T17:06:26.994Z,47.40
2023-01-26T17:08:54.677Z,41.78
2023-01-26T17:11:28.204Z,35.45
2023-01-26T17:13:56.449Z,34.10
2023-01-26T17:16:26.052Z,29.77
2023-01-26T17:18:53.208Z,26.67
2023-01-26T17:21:21.188Z,30.10
2023-01-26T17:23:49.973Z,31.30
2023-01-26T17:26:18.161Z,26.13
2023-01-26T17:28:51.183Z,33.00
2023-01-26T17:31:20.134Z,36.33
2023-01-26T17:33:48.541Z,35.40
2023-01-26T17:36:16.863Z,25.38
2023-01-26T17:38:44.277Z,24.58
2023-01-26T17:41:13.819Z,29.10
2023-01-26T17:43:41.047Z,29.58
2023-01-26T17:46:23.524Z,38.80
2023-01-26T17:48:51.010Z,22.27
2023-01-26T17:51:20.552Z,37.85
2023-01-26T17:53:51.896Z,23.40
2023-01-26T17:58:51.772Z,38.92
2023-01-26T18:01:19.517Z,21.65
2023-01-26T18:03:46.737Z,27.35
2023-01-26T18:06:13.718Z,21.75
2023-01-26T18:08:41.943Z,26.88
2023-01-26T18:11:11.723Z,28.45
2023-01-26T18:13:39.383Z,19.30
2023-01-26T18:16:08.241Z,22.05
2023-01-26T18:18:35.807Z,18.80
2023-01-26T18:21:18.675Z,35.85
2023-01-26T18:23:58.458Z,61.63
2023-01-26T18:26:28.370Z,22.83
2023-01-26T18:28:55.936Z,32.20
2023-01-26T18:31:32.657Z,52.42
2023-01-26T18:34:01.842Z,34.42
2023-01-26T18:36:30.826Z,36.28
2023-01-26T18:39:01.197Z,38.88
2023-01-26T18:41:31.701Z,37.08
2023-01-26T18:44:01.071Z,36.38
2023-01-26T18:46:31.442Z,19.40
2023-01-26T18:49:01.244Z,28.57
2023-01-26T18:51:34.005Z,27.00
2023-01-26T18:54:03.996Z,29.17
2023-01-26T18:56:32.128Z,24.80
2023-01-26T18:58:59.921Z,20.15
2023-01-26T19:01:26.885Z,18.75
2023-01-26T19:03:59.713Z,22.67
2023-01-26T19:06:28.659Z,24.48
2023-01-26T19:08:59.473Z,23.80
2023-01-26T19:11:34.547Z,23.60
2023-01-26T19:14:03.507Z,18.55
2023-01-26T19:16:32.492Z,33.47
2023-01-26T19:19:00.938Z,55.67
2023-01-26T19:21:29.101Z,21.35
2023-01-26T19:23:59.459Z,28.83
2023-01-26T19:26:32.350Z,49.22
2023-01-26T19:29:00.126Z,38.35
2023-01-26T19:31:28.430Z,29.63
2023-01-26T19:34:00.553Z,20.85
2023-01-26T19:36:30.328Z,24.35
2023-01-26T19:38:57.580Z,22.00
2023-01-26T19:41:26.207Z,25.60
2023-01-26T19:43:54.139Z,20.73
2023-01-26T19:46:21.627Z,25.77
2023-01-26T19:48:49.077Z,29.50
2023-01-26T19:51:22.166Z,30.60
2023-01-26T19:53:53.804Z,21.90
2023-01-26T19:56:33.125Z,20.38
2023-01-26T19:59:05.245Z,17.50
2023-01-26T20:01:34.581Z,20.52
2023-01-26T20:04:04.828Z,20.77
2023-01-26T20:06:35.378Z,18.83
2023-01-26T20:09:06.664Z,17.58
2023-01-26T20:11:35.341Z,16.25
2023-01-26T20:14:08.661Z,22.75
2023-01-26T20:16:37.275Z,17.23
2023-01-26T20:19:04.412Z,14.70
2023-01-26T20:21:32.572Z,19.58
2023-01-26T20:24:05.091Z,20.00
2023-01-26T20:26:34.914Z,16.70
2023-01-26T20:29:11.019Z,19.48
2023-01-26T20:31:42.251Z,17.17
2023-01-26T20:34:09.768Z,18.23
2023-01-26T20:36:38.568Z,18.90
2023-01-26T20:39:06.119Z,19.10
2023-01-26T20:41:36.129Z,17.33
2023-01-26T20:44:05.414Z,11.90
2023-01-26T20:46:39.314Z,19.15
2023-01-26T20:49:10.480Z,19.95
2023-01-26T20:51:39.564Z,13.85
2023-01-26T20:54:07.466Z,20.45
2023-01-26T20:56:46.804Z,16.42
2023-01-26T20:59:13.924Z,21.17
2023-01-26T21:01:42.447Z,17.02
2023-01-26T21:04:10.022Z,18.23
2023-01-26T21:06:38.166Z,15.10
2023-01-26T21:09:05.824Z,18.25
2023-01-26T21:11:32.769Z,16.10
2023-01-26T21:14:01.863Z,14.23
2023-01-26T21:16:30.480Z,14.73
2023-01-26T21:18:57.787Z,18.42
2023-01-26T21:21:24.998Z,17.25
2023-01-26T21:23:52.276Z,17.73
2023-01-26T21:26:22.616Z,19.15
2023-01-26T21:28:52.090Z,15.17
2023-01-26T21:31:20.534Z,14.30
2023-01-26T21:33:48.818Z,14.77
2023-01-26T21:36:20.446Z,20.40
2023-01-26T21:38:51.109Z,19.05
2023-01-26T21:41:46.852Z,21.65
2023-01-26T21:44:17.510Z,20.52
2023-01-26T21:46:46.302Z,19.77
2023-01-26T21:49:13.743Z,20.65
2023-01-26T21:52:00.002Z,18.77
2023-01-26T21:54:39.640Z,21.73
2023-01-26T21:57:29.394Z,20.38
2023-01-26T21:59:56.757Z,16.90
2023-01-26T22:02:24.344Z,14.30
2023-01-26T22:04:51.666Z,16.88
2023-01-26T22:07:18.782Z,16.92
2023-01-26T22:09:45.704Z,16.70
2023-01-26T22:12:12.627Z,19.45
2023-01-26T22:14:40.271Z,22.70
2023-01-26T22:17:07.379Z,19.15
2023-01-26T22:19:34.688Z,19.48
2023-01-26T22:22:02.478Z,18.98
2023-01-26T22:24:29.864Z,23.38
2023-01-26T22:26:56.794Z,16.63
2023-01-26T22:29:25.670Z,20.88
2023-01-26T22:31:52.495Z,20.88
2023-01-26T22:34:19.811Z,29.05
2023-01-26T22:36:46.904Z,18.70
2023-01-26T22:39:13.774Z,20.65
2023-01-26T22:41:40.646Z,15.63
2023-01-26T22:44:08.261Z,16.40
2023-01-26T22:46:36.887Z,13.88
2023-01-26T22:49:05.032Z,12.88
2023-01-26T22:51:33.167Z,15.52
2023-01-26T22:54:01.088Z,17.92
2023-01-26T22:56:28.108Z,13.32
2023-01-26T22:58:59.674Z,18.45
2023-01-26T23:01:29.518Z,19.15
2023-01-26T23:03:57.702Z,22.10
2023-01-26T23:06:25.822Z,25.35
2023-01-26T23:08:53.133Z,12.13
2023-01-26T23:11:23.793Z,11.93
2023-01-26T23:13:52.493Z,15.05
2023-01-26T23:16:19.843Z,13.13
2023-01-26T23:18:46.966Z,18.25
2023-01-26T23:21:14.510Z,14.10
2023-01-26T23:23:42.161Z,11.18
2023-01-26T23:26:11.287Z,12.98
2023-01-26T23:28:42.768Z,19.42
2023-01-26T23:31:12.315Z,14.32
2023-01-26T23:33:39.706Z,10.45
2023-01-26T23:36:08.420Z,15.07
2023-01-26T23:38:35.972Z,15.38
2023-01-26T23:41:05.294Z,9.23
2023-01-26T23:43:32.431Z,18.17
2023-01-26T23:45:59.751Z,12.95
2023-01-26T23:48:26.828Z,10.25
2023-01-26T23:50:58.938Z,7.65
2023-01-26T23:53:26.200Z,16.67
2023-01-26T23:55:53.116Z,11.65
2023-01-26T23:58:20.420Z,12.60
